createdAt,value
2018-04-30T00:01:00.081Z,22.80
2018-04-30T00:03:26.076Z,21.43
2018-04-30T00:05:52.038Z,19.60
2018-04-30T00:08:18.792Z,19.73
2018-04-30T00:10:46.279Z,19.13
2018-04-30T00:13:12.235Z,20.93
2018-04-30T00:15:38.211Z,20.30
2018-04-30T00:18:04.151Z,18.30
2018-04-30T00:20:30.148Z,20.90
2018-04-30T00:22:56.136Z,24.40
2018-04-30T00:25:22.876Z,23.80
2018-04-30T00:27:48.832Z,25.10
2018-04-30T00:30:15.593Z,23.17
2018-04-30T00:32:41.548Z,21.73
2018-04-30T00:35:07.496Z,22.33
2018-04-30T00:37:33.495Z,20.80
2018-04-30T00:39:59.482Z,24.90
2018-04-30T00:42:25.476Z,22.50
2018-04-30T00:44:51.445Z,20.77
2018-04-30T00:47:17.421Z,20.10
2018-04-30T00:49:43.426Z,21.33
2018-04-30T00:52:09.400Z,19.93
2018-04-30T00:54:48.772Z,20.10
2018-04-30T00:57:15.412Z,20.20
2018-04-30T00:59:41.415Z,22.47
2018-04-30T01:02:07.392Z,21.53
2018-04-30T01:04:33.359Z,22.80
2018-04-30T01:06:59.360Z,20.70
2018-04-30T01:09:25.346Z,20.07
2018-04-30T01:11:51.349Z,22.50
2018-04-30T01:14:17.369Z,22.40
2018-04-30T01:16:44.104Z,20.83
2018-04-30T01:19:10.060Z,19.87
2018-04-30T01:21:36.759Z,22.50
2018-04-30T01:24:02.728Z,22.33
2018-04-30T01:26:28.706Z,21.33
2018-04-30T01:28:54.681Z,22.70
2018-04-30T01:31:20.652Z,21.53
2018-04-30T01:33:47.387Z,21.33
2018-04-30T01:36:13.349Z,22.33
2018-04-30T01:38:39.335Z,21.60
2018-04-30T01:41:05.294Z,21.83
2018-04-30T01:43:31.280Z,20.00
2018-04-30T01:45:57.304Z,21.90
2018-04-30T01:48:23.298Z,20.43
2018-04-30T01:50:49.259Z,19.60
2018-04-30T01:53:16.001Z,18.80
2018-04-30T01:55:42.736Z,18.47
2018-04-30T01:58:08.744Z,19.73
2018-04-30T02:00:34.695Z,19.03
2018-04-30T02:03:00.696Z,19.03
2018-04-30T02:05:26.688Z,17.73
2018-04-30T02:07:52.635Z,18.50
2018-04-30T02:10:19.379Z,16.77
2018-04-30T02:12:45.335Z,19.13
2018-04-30T02:15:12.076Z,19.07
2018-04-30T02:17:38.067Z,16.43
2018-04-30T02:20:04.023Z,17.50
2018-04-30T02:22:30.027Z,16.90
2018-04-30T02:24:55.987Z,17.30
2018-04-30T02:27:21.947Z,17.47
2018-04-30T02:29:47.935Z,17.60
2018-04-30T02:32:13.891Z,14.97
2018-04-30T02:34:39.874Z,15.17
2018-04-30T02:37:06.571Z,16.60
2018-04-30T02:39:32.543Z,16.50
2018-04-30T02:41:58.565Z,14.73
2018-04-30T02:44:24.596Z,14.57
2018-04-30T02:46:50.564Z,13.07
2018-04-30T02:49:17.299Z,13.40
2018-04-30T02:51:43.284Z,13.27
2018-04-30T02:54:09.240Z,13.30
2018-04-30T02:56:35.223Z,13.37
2018-04-30T02:59:01.960Z,13.13
2018-04-30T03:01:27.990Z,11.03
2018-04-30T03:03:54.003Z,11.57
2018-04-30T03:06:19.987Z,11.70
2018-04-30T03:08:46.699Z,11.27
2018-04-30T03:11:12.696Z,10.77
2018-04-30T03:13:39.391Z,10.63
2018-04-30T03:16:05.375Z,10.90
2018-04-30T03:18:32.075Z,10.10
2018-04-30T03:20:58.060Z,10.33
2018-04-30T03:23:24.799Z,9.70
2018-04-30T03:25:50.795Z,9.60
2018-04-30T03:28:16.910Z,9.93
2018-04-30T03:30:42.879Z,9.23
2018-04-30T03:33:08.939Z,10.20
2018-04-30T03:35:34.923Z,9.80
2018-04-30T03:38:00.874Z,8.87
2018-04-30T03:40:26.867Z,9.40
2018-04-30T03:42:53.568Z,8.97
2018-04-30T03:45:19.551Z,8.83
2018-04-30T03:47:45.559Z,8.70
2018-04-30T03:50:11.551Z,8.80
2018-04-30T03:52:38.319Z,9.17
2018-04-30T03:55:04.304Z,10.17
2018-04-30T03:57:30.282Z,10.97
2018-04-30T03:59:56.263Z,8.97
2018-04-30T04:02:34.639Z,9.80
2018-04-30T04:05:13.841Z,10.40
2018-04-30T04:07:39.827Z,10.13
2018-04-30T04:10:05.811Z,9.00
2018-04-30T04:12:31.801Z,10.83
2018-04-30T04:14:57.767Z,10.77
2018-04-30T04:17:23.714Z,11.80
2018-04-30T04:19:49.701Z,11.40
2018-04-30T04:22:16.397Z,10.30
2018-04-30T04:24:42.362Z,11.70
2018-04-30T04:27:08.411Z,10.53
2018-04-30T04:29:34.364Z,11.73
2018-04-30T04:32:00.354Z,11.33
2018-04-30T04:34:26.767Z,11.70
2018-04-30T04:36:52.763Z,11.07
2018-04-30T04:39:18.739Z,12.30
2018-04-30T04:41:44.796Z,10.67
2018-04-30T04:44:11.482Z,11.40
2018-04-30T04:46:38.216Z,10.70
2018-04-30T04:49:04.198Z,9.83
2018-04-30T04:51:30.961Z,9.93
2018-04-30T04:53:57.676Z,10.27
2018-04-30T04:56:23.658Z,9.93
2018-04-30T04:58:49.679Z,10.40
2018-04-30T05:01:16.411Z,9.33
2018-04-30T05:03:42.392Z,9.30
2018-04-30T05:06:08.384Z,10.50
2018-04-30T05:08:34.353Z,10.07
2018-04-30T05:11:00.420Z,9.63
2018-04-30T05:13:26.356Z,8.73
2018-04-30T05:15:52.312Z,9.17
2018-04-30T05:18:18.303Z,9.07
2018-04-30T05:20:44.314Z,8.93
2018-04-30T05:23:11.027Z,10.80
2018-04-30T05:25:37.046Z,9.27
2018-04-30T05:28:03.043Z,9.00
2018-04-30T05:30:29.760Z,8.67
2018-04-30T05:32:55.840Z,8.80
2018-04-30T05:35:22.574Z,9.20
2018-04-30T05:37:48.568Z,8.30
2018-04-30T05:40:14.553Z,9.20
2018-04-30T05:42:40.560Z,9.73
2018-04-30T05:45:06.571Z,7.80
2018-04-30T05:47:32.575Z,8.77
2018-04-30T05:49:59.337Z,8.90
2018-04-30T05:52:26.109Z,9.60
2018-04-30T05:54:52.071Z,10.40
2018-04-30T05:57:18.059Z,8.87
2018-04-30T05:59:44.872Z,9.20
2018-04-30T06:02:10.862Z,9.40
2018-04-30T06:04:37.558Z,8.30
2018-04-30T06:07:03.719Z,9.10
2018-04-30T06:09:29.697Z,8.60
2018-04-30T06:11:55.660Z,9.33
2018-04-30T06:14:22.465Z,7.53
2018-04-30T06:16:48.464Z,8.33
2018-04-30T06:19:14.605Z,8.27
2018-04-30T06:21:40.788Z,8.27
2018-04-30T06:24:06.804Z,8.30
2018-04-30T06:26:33.613Z,8.50
2018-04-30T06:29:00.412Z,8.33
2018-04-30T06:31:26.441Z,7.90
2018-04-30T06:33:52.400Z,8.70
2018-04-30T06:36:18.423Z,9.93
2018-04-30T06:38:44.399Z,7.23
2018-04-30T06:41:10.379Z,8.03
2018-04-30T06:43:36.373Z,8.07
2018-04-30T06:46:02.316Z,7.93
2018-04-30T06:48:28.279Z,7.50
2018-04-30T06:50:54.306Z,7.90
2018-04-30T06:53:20.302Z,9.60
2018-04-30T06:55:46.272Z,9.50
2018-04-30T06:58:12.219Z,7.90
2018-04-30T07:00:38.435Z,8.80
2018-04-30T07:03:04.423Z,7.80
2018-04-30T07:05:30.447Z,9.23
2018-04-30T07:07:56.471Z,8.80
2018-04-30T07:10:22.415Z,8.53
2018-04-30T07:12:48.403Z,8.13
2018-04-30T07:15:14.400Z,8.40
2018-04-30T07:17:40.386Z,8.73
2018-04-30T07:20:06.435Z,7.30
2018-04-30T07:22:32.370Z,8.03
2018-04-30T07:24:58.327Z,9.23
2018-04-30T07:27:24.335Z,8.67
2018-04-30T07:29:50.299Z,7.80
2018-04-30T07:32:16.403Z,8.43
2018-04-30T07:34:42.356Z,8.20
2018-04-30T07:37:08.371Z,7.17
2018-04-30T07:39:34.391Z,7.87
2018-04-30T07:42:01.096Z,8.03
2018-04-30T07:44:27.150Z,8.03
2018-04-30T07:46:53.099Z,7.50
2018-04-30T07:49:19.135Z,7.00
2018-04-30T07:51:45.085Z,7.40
2018-04-30T07:54:11.822Z,8.63
2018-04-30T07:56:46.171Z,8.00
2018-04-30T07:59:12.905Z,7.03
2018-04-30T08:01:38.907Z,8.23
2018-04-30T08:04:04.878Z,9.27
2018-04-30T08:06:30.833Z,7.50
2018-04-30T08:08:57.571Z,7.70
2018-04-30T08:11:23.519Z,8.13
2018-04-30T08:13:50.254Z,8.77
2018-04-30T08:16:16.611Z,7.53
2018-04-30T08:18:42.564Z,7.67
2018-04-30T08:21:09.354Z,7.00
2018-04-30T08:23:35.304Z,6.53
2018-04-30T08:26:01.287Z,6.40
2018-04-30T08:28:27.996Z,6.37
2018-04-30T08:30:54.015Z,6.93
2018-04-30T08:33:19.962Z,6.03
2018-04-30T08:35:45.918Z,6.73
2018-04-30T08:38:11.927Z,5.37
2018-04-30T08:40:37.898Z,7.27
2018-04-30T08:43:03.879Z,5.93
2018-04-30T08:45:29.859Z,5.57
2018-04-30T08:47:55.827Z,5.87
2018-04-30T08:50:22.552Z,4.33
2018-04-30T08:52:48.510Z,4.40
2018-04-30T08:55:15.199Z,4.87
2018-04-30T08:57:41.199Z,3.97
2018-04-30T09:00:07.184Z,3.40
2018-04-30T09:02:33.182Z,3.13
2018-04-30T09:04:59.888Z,3.87
2018-04-30T09:07:25.876Z,3.50
2018-04-30T09:09:52.614Z,3.07
2018-04-30T09:12:18.583Z,2.40
2018-04-30T09:14:44.591Z,3.00
2018-04-30T09:17:11.331Z,2.27
2018-04-30T09:19:37.455Z,1.70
2018-04-30T09:22:03.499Z,2.27
2018-04-30T09:24:29.520Z,2.00
2018-04-30T09:26:55.475Z,2.80
2018-04-30T09:29:21.459Z,1.93
2018-04-30T09:31:48.023Z,2.07
2018-04-30T09:34:13.975Z,2.00
2018-04-30T09:36:39.980Z,2.00
2018-04-30T09:39:05.932Z,1.70
2018-04-30T09:41:31.966Z,2.20
2018-04-30T09:43:57.914Z,1.30
2018-04-30T09:46:23.902Z,1.03
2018-04-30T09:48:50.642Z,1.10
2018-04-30T09:51:16.631Z,1.50
2018-04-30T09:53:42.610Z,1.30
2018-04-30T09:56:08.708Z,0.97
2018-04-30T09:58:34.719Z,1.20
2018-04-30T10:01:00.687Z,1.93
2018-04-30T10:03:26.692Z,1.27
2018-04-30T10:05:52.798Z,1.03
2018-04-30T10:08:18.765Z,1.40
2018-04-30T10:10:44.747Z,1.23
2018-04-30T10:13:10.712Z,1.10
2018-04-30T10:15:37.522Z,1.27
2018-04-30T10:18:03.487Z,1.20
2018-04-30T10:20:29.475Z,1.00
2018-04-30T10:22:55.495Z,0.97
2018-04-30T10:25:22.203Z,1.00
2018-04-30T10:27:48.306Z,1.20
2018-04-30T10:30:14.311Z,0.97
2018-04-30T10:32:41.023Z,1.43
2018-04-30T10:35:07.146Z,1.07
2018-04-30T10:37:33.163Z,1.07
2018-04-30T10:39:59.129Z,1.30
2018-04-30T10:42:25.142Z,1.10
2018-04-30T10:44:51.130Z,1.17
2018-04-30T10:47:17.154Z,0.90
2018-04-30T10:49:43.143Z,1.10
2018-04-30T10:52:09.118Z,1.53
2018-04-30T10:54:35.127Z,1.23
2018-04-30T10:57:01.085Z,0.93
2018-04-30T10:59:27.117Z,1.40
2018-04-30T11:01:53.107Z,1.00
2018-04-30T11:04:19.828Z,1.10
2018-04-30T11:06:45.795Z,1.17
2018-04-30T11:09:12.543Z,1.83
2018-04-30T11:11:38.536Z,1.10
2018-04-30T11:14:04.582Z,1.30
2018-04-30T11:16:30.579Z,1.03
2018-04-30T11:18:56.614Z,1.10
2018-04-30T11:21:22.592Z,1.23
2018-04-30T11:23:48.604Z,0.70
2018-04-30T11:26:14.557Z,0.70
2018-04-30T11:28:40.588Z,0.73
2018-04-30T11:31:06.592Z,0.90
2018-04-30T11:33:33.314Z,0.83
2018-04-30T11:35:59.334Z,1.60
2018-04-30T11:38:25.327Z,1.47
2018-04-30T11:40:51.313Z,1.00
2018-04-30T11:43:17.331Z,1.83
2018-04-30T11:45:43.328Z,0.90
2018-04-30T11:48:09.359Z,1.53
2018-04-30T11:50:35.319Z,1.00
2018-04-30T11:53:01.271Z,1.03
2018-04-30T11:55:27.296Z,0.83
2018-04-30T11:57:53.269Z,1.03
2018-04-30T12:00:19.368Z,1.17
2018-04-30T12:02:45.335Z,0.90
2018-04-30T12:05:11.306Z,1.00
2018-04-30T12:07:38.086Z,1.00
2018-04-30T12:10:04.052Z,0.93
2018-04-30T12:12:30.016Z,0.90
2018-04-30T12:14:56.006Z,0.90
2018-04-30T12:17:21.975Z,1.23
2018-04-30T12:19:47.994Z,1.20
2018-04-30T12:22:13.975Z,1.43
2018-04-30T12:24:40.701Z,0.93
2018-04-30T12:27:06.739Z,1.13
2018-04-30T12:29:32.719Z,1.13
2018-04-30T12:31:58.734Z,0.90
2018-04-30T12:34:25.492Z,1.73
2018-04-30T12:36:51.459Z,0.80
2018-04-30T12:39:17.494Z,0.97
2018-04-30T12:41:43.468Z,1.00
2018-04-30T12:44:09.540Z,1.17
2018-04-30T12:46:35.568Z,1.47
2018-04-30T12:49:01.526Z,1.03
2018-04-30T12:51:27.632Z,1.40
2018-04-30T12:53:53.595Z,1.30
2018-04-30T12:56:20.318Z,1.17
2018-04-30T12:58:47.779Z,1.27
2018-04-30T13:01:13.739Z,1.50
2018-04-30T13:03:39.711Z,1.30
2018-04-30T13:06:05.735Z,1.50
2018-04-30T13:08:31.699Z,1.00
2018-04-30T13:10:57.723Z,1.03
2018-04-30T13:13:23.734Z,0.80
2018-04-30T13:15:50.439Z,1.23
2018-04-30T13:18:16.451Z,1.10
2018-04-30T13:20:42.403Z,0.87
2018-04-30T13:23:08.411Z,0.87
2018-04-30T13:25:35.142Z,1.10
2018-04-30T13:28:01.126Z,1.00
2018-04-30T13:30:27.127Z,0.87
2018-04-30T13:32:53.858Z,0.90
2018-04-30T13:35:19.815Z,0.97
2018-04-30T13:37:46.551Z,1.00
2018-04-30T13:40:12.522Z,1.17
2018-04-30T13:42:39.236Z,1.33
2018-04-30T13:45:05.218Z,1.13
2018-04-30T13:47:31.206Z,1.10
2018-04-30T13:49:57.174Z,0.70
2018-04-30T13:52:23.903Z,0.80
2018-04-30T13:54:49.858Z,1.10
2018-04-30T13:57:16.603Z,1.20
2018-04-30T13:59:42.559Z,1.07
2018-04-30T14:02:09.266Z,1.13
2018-04-30T14:04:36.779Z,1.20
2018-04-30T14:07:03.476Z,1.27
2018-04-30T14:09:29.430Z,1.00
2018-04-30T14:11:55.427Z,1.67
2018-04-30T14:14:21.419Z,0.90
2018-04-30T14:16:47.381Z,1.20
2018-04-30T14:19:13.404Z,1.20
2018-04-30T14:21:40.130Z,1.47
2018-04-30T14:24:06.127Z,1.30
2018-04-30T14:26:32.075Z,1.50
2018-04-30T14:28:58.063Z,1.50
2018-04-30T14:31:25.519Z,1.30
2018-04-30T14:33:51.580Z,1.50
2018-04-30T14:36:17.515Z,1.20
2018-04-30T14:38:44.213Z,1.37
2018-04-30T14:41:10.207Z,1.57
2018-04-30T14:43:36.168Z,1.40
2018-04-30T14:46:02.153Z,1.30
2018-04-30T14:48:28.137Z,1.07
2018-04-30T14:50:54.126Z,1.23
2018-04-30T14:53:20.113Z,1.47
2018-04-30T14:55:46.088Z,1.60
2018-04-30T14:58:12.131Z,1.40
2018-04-30T15:00:38.146Z,1.70
2018-04-30T15:03:04.142Z,1.40
2018-04-30T15:05:30.159Z,1.50
2018-04-30T15:07:56.960Z,1.17
2018-04-30T15:10:22.941Z,1.23
2018-04-30T15:12:55.824Z,1.40
2018-04-30T15:15:21.911Z,1.87
2018-04-30T15:17:47.902Z,1.83
2018-04-30T15:20:13.913Z,2.10
2018-04-30T15:22:40.053Z,2.03
2018-04-30T15:25:06.010Z,1.23
2018-04-30T15:27:32.016Z,1.20
2018-04-30T15:29:57.971Z,1.33
2018-04-30T15:32:24.011Z,1.93
2018-04-30T15:34:49.969Z,2.23
2018-04-30T15:37:22.990Z,1.30
2018-04-30T15:39:49.692Z,1.30
2018-04-30T15:42:15.688Z,1.20
2018-04-30T15:44:42.454Z,1.13
2018-04-30T15:47:08.471Z,1.27
2018-04-30T15:49:35.163Z,1.40
2018-04-30T15:52:01.162Z,1.73
2018-04-30T15:54:27.945Z,1.20
2018-04-30T15:56:53.912Z,1.70
2018-04-30T15:59:19.887Z,1.20
2018-04-30T16:01:46.615Z,1.80
2018-04-30T16:04:12.627Z,1.30
2018-04-30T16:06:38.628Z,1.30
2018-04-30T16:09:04.627Z,1.40
2018-04-30T16:11:30.579Z,1.23
2018-04-30T16:13:57.405Z,1.67
2018-04-30T16:16:23.310Z,1.40
2018-04-30T16:18:49.263Z,1.67
2018-04-30T16:21:15.270Z,1.83
2018-04-30T16:23:41.268Z,1.67
2018-04-30T16:26:08.031Z,1.60
2018-04-30T16:28:34.767Z,1.77
2018-04-30T16:31:01.482Z,1.30
2018-04-30T16:33:27.451Z,1.60
2018-04-30T16:35:53.464Z,2.20
2018-04-30T16:38:19.436Z,2.23
2018-04-30T16:40:45.483Z,1.90
2018-04-30T16:43:11.442Z,1.53
2018-04-30T16:45:37.610Z,1.80
2018-04-30T16:48:03.583Z,1.43
2018-04-30T16:50:30.283Z,1.70
2018-04-30T16:52:56.292Z,1.47
2018-04-30T16:55:23.015Z,1.50
2018-04-30T16:57:48.971Z,1.77
2018-04-30T17:00:15.714Z,1.27
2018-04-30T17:02:41.674Z,1.50
2018-04-30T17:05:08.479Z,2.17
2018-04-30T17:07:34.427Z,1.57
2018-04-30T17:10:00.424Z,1.27
2018-04-30T17:12:26.474Z,2.10
2018-04-30T17:14:52.495Z,1.60
2018-04-30T17:17:18.447Z,1.63
2018-04-30T17:19:44.422Z,2.20
2018-04-30T17:22:11.171Z,1.80
2018-04-30T17:24:37.362Z,2.33
2018-04-30T17:27:03.355Z,2.40
2018-04-30T17:29:29.381Z,2.27
2018-04-30T17:31:55.338Z,2.10
2018-04-30T17:34:22.100Z,2.37
2018-04-30T17:36:48.843Z,2.20
2018-04-30T17:39:14.820Z,3.03
2018-04-30T17:41:40.795Z,2.60
2018-04-30T17:44:06.792Z,2.77
2018-04-30T17:46:32.744Z,2.60
2018-04-30T17:48:58.783Z,3.87
2018-04-30T17:51:24.767Z,3.70
2018-04-30T17:53:50.739Z,3.70
2018-04-30T17:56:16.729Z,3.80
2018-04-30T17:58:42.715Z,4.50
2018-04-30T18:01:08.752Z,6.43
2018-04-30T18:03:34.759Z,7.03
2018-04-30T18:06:01.455Z,4.20
2018-04-30T18:08:27.443Z,6.30
2018-04-30T18:10:54.167Z,15.63
2018-04-30T18:13:20.201Z,12.10
2018-04-30T18:15:46.217Z,9.43
2018-04-30T18:18:12.186Z,11.00
2018-04-30T18:20:39.006Z,10.63
2018-04-30T18:23:04.955Z,10.23
2018-04-30T18:25:30.960Z,9.20
2018-04-30T18:27:56.996Z,11.03
2018-04-30T18:30:22.978Z,21.53
2018-04-30T18:32:49.019Z,12.83
2018-04-30T18:35:15.135Z,12.30
2018-04-30T18:37:41.363Z,11.40
2018-04-30T18:40:07.311Z,14.83
2018-04-30T18:42:33.351Z,19.47
2018-04-30T18:44:59.323Z,18.70
2018-04-30T18:47:25.311Z,14.10
2018-04-30T18:49:51.263Z,17.23
2018-04-30T18:52:17.345Z,12.07
2018-04-30T18:54:43.247Z,14.67
2018-04-30T18:57:09.285Z,15.80
2018-04-30T18:59:35.271Z,12.07
2018-04-30T19:02:01.280Z,14.00
2018-04-30T19:04:28.140Z,10.87
2018-04-30T19:06:54.419Z,13.40
2018-04-30T19:09:20.455Z,11.43
2018-04-30T19:11:46.474Z,11.50
2018-04-30T19:14:12.435Z,12.83
2018-04-30T19:16:38.415Z,14.23
2018-04-30T19:19:04.366Z,14.20
2018-04-30T19:21:31.055Z,14.00
2018-04-30T19:23:57.086Z,16.10
2018-04-30T19:26:23.078Z,15.57
2018-04-30T19:28:49.770Z,15.37
2018-04-30T19:31:15.867Z,16.90
2018-04-30T19:33:41.927Z,22.83
2018-04-30T19:36:07.844Z,20.57
2018-04-30T19:38:33.844Z,19.37
2018-04-30T19:40:59.861Z,19.53
2018-04-30T19:43:25.851Z,19.53
2018-04-30T19:45:51.811Z,21.17
2018-04-30T19:48:18.544Z,30.67
2018-04-30T19:50:45.329Z,38.33
2018-04-30T19:53:11.315Z,27.90
2018-04-30T19:55:37.311Z,25.80
2018-04-30T19:58:03.367Z,27.87
2018-04-30T20:00:29.346Z,25.33
2018-04-30T20:02:55.311Z,26.73
2018-04-30T20:05:21.329Z,27.60
2018-04-30T20:07:48.058Z,28.87
2018-04-30T20:10:14.007Z,28.53
2018-04-30T20:12:40.025Z,31.70
2018-04-30T20:15:05.970Z,38.40
2018-04-30T20:17:31.955Z,45.90
2018-04-30T20:19:58.019Z,45.00
2018-04-30T20:22:24.108Z,45.67
2018-04-30T20:24:50.183Z,38.17
2018-04-30T20:27:16.224Z,36.67
2018-04-30T20:29:42.201Z,35.63
2018-04-30T20:32:08.203Z,34.67
2018-04-30T20:34:34.251Z,37.63
2018-04-30T20:37:00.294Z,37.07
2018-04-30T20:39:26.290Z,35.53
2018-04-30T20:41:52.299Z,36.10
2018-04-30T20:44:19.096Z,37.83
2018-04-30T20:46:45.781Z,35.63
2018-04-30T20:49:11.791Z,35.93
2018-04-30T20:51:37.755Z,37.87
2018-04-30T20:54:03.767Z,35.53
2018-04-30T20:56:29.761Z,34.10
2018-04-30T20:58:56.534Z,31.83
2018-04-30T21:01:22.540Z,34.07
2018-04-30T21:03:49.281Z,31.27
2018-04-30T21:06:15.314Z,35.87
2018-04-30T21:08:53.597Z,35.80
2018-04-30T21:11:19.672Z,34.70
2018-04-30T21:13:45.630Z,35.17
2018-04-30T21:16:12.368Z,32.53
2018-04-30T21:18:38.336Z,33.20
2018-04-30T21:21:05.039Z,33.20
2018-04-30T21:23:31.019Z,32.30
2018-04-30T21:25:57.719Z,31.43
2018-04-30T21:28:23.734Z,32.17
2018-04-30T21:30:49.762Z,28.03
2018-04-30T21:33:15.708Z,29.80
2018-04-30T21:35:41.728Z,27.93
2018-04-30T21:38:07.687Z,28.00
2018-04-30T21:40:33.691Z,29.57
2018-04-30T21:43:00.392Z,27.10
2018-04-30T21:45:26.424Z,27.87
2018-04-30T21:47:52.443Z,32.27
2018-04-30T21:50:18.395Z,33.90
2018-04-30T21:52:44.396Z,38.37
2018-04-30T21:55:11.103Z,36.57
2018-04-30T21:57:37.067Z,34.90
2018-04-30T22:00:03.024Z,35.57
2018-04-30T22:02:29.004Z,35.43
2018-04-30T22:04:54.995Z,34.37
2018-04-30T22:07:20.943Z,33.17
2018-04-30T22:09:46.939Z,35.73
2018-04-30T22:12:12.989Z,33.90
2018-04-30T22:14:38.915Z,34.07
2018-04-30T22:17:04.866Z,38.83
2018-04-30T22:19:31.587Z,37.20
2018-04-30T22:21:58.302Z,39.93
2018-04-30T22:24:24.300Z,38.80
2018-04-30T22:26:50.267Z,35.77
2018-04-30T22:29:16.266Z,33.00
2018-04-30T22:31:42.235Z,29.10
2018-04-30T22:34:08.252Z,31.40
2018-04-30T22:36:34.983Z,28.47
2018-04-30T22:39:01.722Z,34.17
2018-04-30T22:41:27.721Z,34.83
2018-04-30T22:43:53.680Z,33.10
2018-04-30T22:46:19.639Z,31.70
2018-04-30T22:48:45.614Z,29.93
2018-04-30T22:51:11.580Z,30.07
2018-04-30T22:53:37.568Z,31.30
2018-04-30T22:56:03.539Z,29.50
2018-04-30T22:58:29.518Z,29.17
2018-04-30T23:00:55.522Z,30.87
2018-04-30T23:03:21.460Z,28.17
2018-04-30T23:05:47.431Z,24.57
2018-04-30T23:08:13.606Z,23.60
2018-04-30T23:10:39.563Z,25.10
2018-04-30T23:13:05.540Z,23.70
2018-04-30T23:15:32.266Z,22.20
2018-04-30T23:17:58.284Z,21.00
2018-04-30T23:20:24.326Z,21.70
2018-04-30T23:22:50.320Z,20.87
2018-04-30T23:25:17.032Z,17.97
2018-04-30T23:27:43.023Z,16.80
2018-04-30T23:30:09.731Z,17.93
2018-04-30T23:32:35.726Z,17.30
2018-04-30T23:35:01.680Z,16.40
2018-04-30T23:37:27.629Z,16.40
2018-04-30T23:39:53.631Z,16.40
2018-04-30T23:42:19.626Z,15.07
2018-04-30T23:44:45.607Z,17.37
2018-04-30T23:47:11.594Z,16.80
2018-04-30T23:49:37.551Z,16.63
2018-04-30T23:52:03.526Z,15.93
2018-04-30T23:54:29.482Z,16.73
2018-04-30T23:56:55.491Z,18.10
2018-04-30T23:59:21.459Z,17.17
